Pagrindinis puslapis
METAR-TAF:

METAR-TAF

Oro uostai :

Kvala Lumpūro tarptautinis oro uostas

Kvala Lumpūras, Malaizija

platuma: 02-44N, ilguma: 101-42E, Aukštis: 21 m

Dabartinis oras

Ataskaita buvo paskelbta 42 minutes, ne 04:30 UTC
Vėjas 5 kt nuo kintamojo kryptimis
Temperatūra 31°C
Drėgmė 63%
Slėgis 1010 hPa
Matomumas 10 km arba daugiau
Mažai debesys ne aukštis 1800 ft

METAR: WMKK 140430Z VRB05KT 9999 FEW018 31/23 Q1010 NOSIG

Laikas: 13:12 (05:12 UTC)

Prognozė

Ataskaita buvo paskelbta 6 valandos ir 12 minutes, ne 23:00 UTC
Prognozė galioja nuo 14 metu 00 UTC su 15 metu 06 UTC
Vėjas 5 kt iš Pietryčių
Matomumas 10 km arba daugiau
Mažai debesys ne aukštis 1800 ft
Tikimybė 30% :
Laikinai
nuo 14 metu 19 UTC su 14 metu 23 UTC
Vėjas 5 kt iš Vakarų
Matomumas: 4000 m
Mažai debesys ne aukštis 800 ft
Mažai debesys ne aukštis 1700 ft, Liūtiniai kamuoliniai debesys.
Išsisklaidę debesys ne aukštis 2800 ft
perkūnija, lietus

TAF: WMKK 132300Z 1400/1506 14005KT 9999 FEW018 PROB30 TEMPO 1419/1423 27005KT 4000 TSRA FEW008 FEW017CB SCT028

Orai ataskaitas ir orų prognozės (METAR, TAF).

turimą stotys yra geltonos ir raudonos taškus žemėlapyje.

Perkelti pele per norėdami pamatyti stoties vardą.

Tada spustelėkite, norėdami matyti oro stebėjimo ir prognozės.

Norėdami pakeisti žemėlapį: spustelėkite ant žalios mygtukų su juodo kryžiaus žemyn,; žalią mygtuką su brūkšneliu, jei norite nutolinti; arba žalių rodyklių gretimoms žemėlapius.


METAR-TAF: